.
WxDataArchive / Data Records for 2015-07-25
2015-07-24 July 2015 2015-07-26

Data Records for Saturday, 25 July 2015

Time	Temp	Chill	HIndex	Humid	Dewpt	 Wind 	HiWind	WindDir	Rain 	Barom
-----	----	-----	------	-----	-----	------	------	-------	-----	-----
00:00	70.6	70.6	70.6	78	63.4	0	0	---	0.00	29.928 
00:05	70.4	70.4	70.4	79	63.6	0	0	---	0.00	29.928 
00:10	70.3	70.3	70.3	79	63.5	0	0	---	0.00	29.928 
00:15	70.3	70.3	70.3	80	63.8	0	0	---	0.00	29.928 
00:20	70.1	70.1	70.1	80	63.6	0	0	---	0.00	29.928 
00:25	69.9	69.9	69.9	81	63.8	0	0	---	0.00	29.928 
00:30	69.8	69.8	69.8	81	63.7	0	0	---	0.00	29.930 
00:35	69.6	69.6	69.6	81	63.5	0	0	---	0.00	29.930 
00:40	69.6	69.6	69.6	82	63.9	0	0	---	0.00	29.930 
00:45	69.4	69.4	69.4	82	63.7	0	0	---	0.00	29.930 
00:50	69.3	69.3	69.3	83	63.9	0	0	---	0.00	29.930 
00:55	69.1	69.1	69.1	83	63.7	0	0	---	0.00	29.930 
01:00	69.1	69.1	69.1	83	63.7	0	0	---	0.00	29.932 
01:05	68.9	68.9	68.9	84	63.9	0	0	---	0.00	29.932 
01:10	68.8	68.8	68.8	84	63.8	0	0	---	0.00	29.932 
01:15	68.6	68.6	68.6	85	63.9	0	0	---	0.00	29.932 
01:20	68.6	68.6	68.6	85	63.9	0	0	---	0.00	29.932 
01:25	68.6	68.6	68.6	86	64.2	0	0	---	0.00	29.932 
01:30	68.6	68.6	68.6	86	64.2	0	0	---	0.00	29.930 
01:35	68.8	68.8	68.8	86	64.4	0	0	---	0.00	29.930 
01:40	68.8	68.8	68.8	86	64.4	0	0	---	0.00	29.930 
01:45	68.6	68.6	68.6	86	64.2	0	0	---	0.00	29.929 
01:50	68.6	68.6	68.6	86	64.2	0	0	---	0.00	29.929 
01:55	68.6	68.6	68.6	86	64.2	0	0	---	0.00	29.929 
02:00	68.4	68.4	68.4	86	64.0	0	0	---	0.00	29.936 
02:05	68.4	68.4	68.4	87	64.4	0	0	---	0.00	29.936 
02:10	68.4	68.4	68.4	86	64.0	0	0	---	0.00	29.936 
02:15	68.3	68.3	68.3	86	63.9	0	0	---	0.00	29.936 
02:20	68.4	68.4	68.4	86	64.0	0	0	---	0.00	29.936 
02:25	68.4	68.4	68.4	86	64.0	0	0	---	0.00	29.936 
02:30	68.4	68.4	68.4	86	64.0	0	0	---	0.00	29.933 
02:35	68.6	68.6	68.6	86	64.2	0	0	---	0.00	29.933 
02:40	68.6	68.6	68.6	85	63.9	0	0	---	0.00	29.933 
02:45	68.6	68.6	68.6	85	63.9	0	0	---	0.00	29.932 
02:50	68.8	68.8	68.8	84	63.8	0	0	---	0.00	29.932 
02:55	68.6	68.6	68.6	84	63.6	0	0	---	0.00	29.932 
03:00	68.8	68.8	68.8	84	63.8	0	0	---	0.00	29.929 
03:05	68.6	68.6	68.6	83	63.2	0	0	---	0.00	29.929 
03:10	68.6	68.6	68.6	83	63.2	0	0	---	0.00	29.929 
03:15	68.6	68.6	68.6	83	63.2	0	0	---	0.00	29.929 
03:20	68.4	68.4	68.4	83	63.0	0	0	---	0.00	29.929 
03:25	68.4	68.4	68.4	83	63.0	0	0	---	0.00	29.929 
03:30	68.4	68.4	68.4	83	63.0	0	0	---	0.00	29.920 
03:35	68.4	68.4	68.4	84	63.4	0	0	---	0.00	29.920 
03:40	68.3	68.3	68.3	84	63.3	0	0	---	0.00	29.920 
03:45	68.3	68.3	68.3	83	62.9	0	0	---	0.00	29.917 
03:50	68.1	68.1	68.1	84	63.1	0	0	---	0.00	29.917 
03:55	67.9	67.9	67.9	84	62.9	0	0	---	0.00	29.917 
04:00	67.8	67.8	67.8	84	62.8	0	0	---	0.00	29.912 
04:05	67.6	67.6	67.6	84	62.6	0	0	---	0.00	29.912 
04:10	67.6	67.6	67.6	84	62.6	0	0	---	0.00	29.912 
04:15	67.4	67.4	67.4	84	62.4	0	0	---	0.00	29.908 
04:20	67.4	67.4	67.4	84	62.4	0	0	---	0.00	29.908 
04:25	67.3	67.3	67.3	85	62.6	0	0	---	0.00	29.908 
04:30	67.1	67.1	67.1	85	62.4	0	0	---	0.00	29.904 
04:35	67.1	67.1	67.1	85	62.4	0	0	---	0.00	29.904 
04:40	66.9	66.9	66.9	85	62.2	0	0	---	0.00	29.904 
04:45	66.9	66.9	66.9	85	62.2	0	0	---	0.00	29.910 
04:50	66.8	66.8	66.8	85	62.1	0	0	---	0.00	29.910 
04:55	66.8	66.8	66.8	85	62.1	0	0	---	0.00	29.910 
05:00	66.6	66.6	66.6	85	61.9	0	0	---	0.00	29.912 
05:05	66.6	66.6	66.6	86	62.3	0	0	---	0.00	29.912 
05:10	66.4	66.4	66.4	86	62.1	0	0	---	0.00	29.912 
05:15	66.4	66.4	66.4	86	62.1	0	0	---	0.00	29.915 
05:20	66.3	66.3	66.3	86	62.0	0	0	---	0.00	29.915 
05:25	66.3	66.3	66.3	86	62.0	0	0	---	0.00	29.915 
05:30	66.3	66.3	66.3	86	62.0	0	0	---	0.00	29.916 
05:35	66.1	66.1	66.1	85	61.5	0	0	---	0.00	29.916 
05:40	66.0	66.0	66.0	85	61.4	0	0	---	0.00	29.916 
05:45	66.0	66.0	66.0	85	61.4	0	0	---	0.00	29.920 
05:50	66.0	66.0	66.0	85	61.4	0	0	---	0.00	29.920 
05:55	65.8	65.8	65.8	85	61.2	0	0	---	0.00	29.920 
06:00	65.8	65.8	65.8	85	61.2	0	0	---	0.00	29.921 
06:05	65.8	65.8	65.8	85	61.2	0	0	---	0.00	29.921 
06:10	65.8	65.8	65.8	86	61.5	0	0	---	0.00	29.921 
06:15	65.8	65.8	65.8	85	61.2	0	0	---	0.00	29.923 
06:20	65.6	65.6	65.6	85	61.0	0	0	---	0.00	29.923 
06:25	65.6	65.6	65.6	85	61.0	0	0	---	0.00	29.923 
06:30	65.6	65.6	65.6	85	61.0	0	0	---	0.00	29.925 
06:35	65.5	65.5	65.5	85	60.9	0	0	---	0.00	29.925 
06:40	65.5	65.5	65.5	85	60.9	0	0	---	0.00	29.925 
06:45	65.5	65.5	65.5	85	60.9	0	0	---	0.00	29.933 
06:50	65.5	65.5	65.5	85	60.9	0	0	---	0.00	29.933 
06:55	65.3	65.3	65.3	86	61.0	0	0	---	0.00	29.933 
07:00	65.3	65.3	65.3	86	61.0	0	0	---	0.00	29.932 
07:05	65.5	65.5	65.5	86	61.2	0	0	---	0.00	29.932 
07:10	65.5	65.5	65.5	86	61.2	0	0	---	0.00	29.932 
07:15	65.5	65.5	65.5	86	61.2	0	0	---	0.00	29.936 
07:20	65.6	65.6	65.6	86	61.3	0	0	---	0.00	29.936 
07:25	65.8	65.8	65.8	86	61.5	0	0	---	0.00	29.936 
07:30	66.0	66.0	66.0	86	61.7	0	0	---	0.00	29.935 
07:35	66.3	66.3	66.3	85	61.6	0	0	---	0.00	29.935 
07:40	66.8	66.8	66.8	84	61.8	0	0	---	0.00	29.935 
07:45	67.3	67.3	67.3	83	62.0	0	0	---	0.00	29.932 
07:50	68.1	68.1	68.1	82	62.4	0	0	---	0.00	29.932 
07:55	69.1	69.1	69.1	80	62.7	0	1	270	0.00	29.932 
08:00	69.9	69.9	69.9	79	63.1	0	0	---	0.00	29.929 
08:05	70.6	70.6	70.6	78	63.4	0	0	---	0.00	29.929 
08:10	71.3	71.3	71.3	75	63.0	0	0	---	0.00	29.929 
08:15	72.1	72.1	72.1	74	63.3	0	1	270	0.00	29.928 
08:20	72.5	72.5	72.5	73	63.3	0	1	270	0.00	29.928 
08:25	73.0	73.0	73.0	72	63.4	0	1	270	0.00	29.928 
08:30	73.3	73.3	73.3	72	63.7	0	0	---	0.00	29.930 
08:35	74.0	74.0	74.0	70	63.6	0	1	270	0.00	29.930 
08:40	74.9	74.9	74.9	68	63.6	0	0	---	0.00	29.930 
08:45	75.6	75.6	77.3	69	64.7	0	0	---	0.00	29.927 
08:50	76.0	76.0	77.8	67	64.2	0	1	270	0.00	29.927 
08:55	76.1	76.1	77.9	67	64.3	0	1	270	0.00	29.927 
09:00	76.5	76.5	78.3	65	63.8	0	1	270	0.00	29.924 
09:05	77.2	77.2	79.0	64	64.1	0	1	270	0.00	29.924 
09:10	77.9	77.9	79.6	62	63.8	0	1	225	0.00	29.924 
09:15	78.5	78.5	80.3	63	64.8	0	1	225	0.00	29.916 
09:20	78.8	78.8	80.5	61	64.2	0	1	225	0.00	29.916 
09:25	79.2	79.2	80.9	60	64.1	0	1	225	0.00	29.916 
09:30	79.2	79.2	80.8	59	63.6	0	1	225	0.00	29.920 
09:35	79.0	79.0	80.8	62	64.8	0	1	225	0.00	29.920 
09:40	78.6	78.6	80.3	61	64.0	0	1	225	0.00	29.920 
09:45	78.5	78.5	80.3	62	64.4	0	1	225	0.00	29.920 
09:50	78.3	78.3	80.1	62	64.2	0	1	225	0.00	29.920 
09:55	78.1	78.1	79.9	63	64.5	0	1	225	0.00	29.920 
10:00	77.9	77.9	79.7	63	64.3	0	1	225	0.00	29.924 
10:05	77.9	77.9	79.7	64	64.7	0	1	225	0.00	29.924 
10:10	77.9	77.9	79.7	63	64.3	0	1	225	0.00	29.924 
10:15	77.9	77.9	79.6	62	63.8	0	1	225	0.00	29.924 
10:20	78.1	78.1	79.9	62	64.0	0	3	225	0.00	29.924 
10:25	78.1	78.1	79.9	63	64.5	0	2	225	0.00	29.924 
10:30	78.3	78.3	80.1	62	64.2	0	2	225	0.00	29.930 
10:35	78.3	78.3	80.1	62	64.2	0	2	225	0.00	29.930 
10:40	78.6	78.6	80.4	62	64.5	0	1	0	0.00	29.930 
10:45	78.8	78.8	80.5	61	64.2	0	3	0	0.00	29.930 
10:50	78.8	78.8	80.5	61	64.2	0	2	0	0.00	29.930 
10:55	78.8	78.8	80.6	62	64.7	0	2	0	0.00	29.930 
11:00	79.0	79.0	80.8	61	64.4	0	1	0	0.00	29.933 
11:05	78.8	78.8	80.6	62	64.7	0	3	0	0.00	29.933 
11:10	78.6	78.6	80.3	61	64.0	1	4	292	0.00	29.933 
11:15	78.8	78.8	80.6	62	64.7	0	2	292	0.00	29.940 
11:20	79.0	79.0	80.8	61	64.4	1	4	292	0.00	29.940 
11:25	79.0	79.0	80.8	61	64.4	0	4	292	0.00	29.940 
11:30	78.8	78.8	80.5	61	64.2	1	4	292	0.00	29.944 
11:35	78.8	78.8	80.5	61	64.2	2	5	292	0.00	29.944 
11:40	78.8	78.8	80.6	62	64.7	0	3	292	0.00	29.944 
11:45	79.2	79.2	81.1	62	65.0	0	2	292	0.00	29.946 
11:50	79.4	79.4	81.3	62	65.2	0	2	292	0.00	29.946 
11:55	79.4	79.4	81.1	60	64.3	1	5	292	0.00	29.946 
12:00	79.4	79.4	81.1	60	64.3	2	5	292	0.00	29.939 
12:05	79.4	79.4	81.2	61	64.8	2	4	292	0.00	29.939 
12:10	79.8	79.8	81.5	59	64.2	1	4	292	0.00	29.939 
12:15	80.3	80.3	81.9	58	64.2	1	6	270	0.00	29.937 
12:20	80.9	80.9	82.7	58	64.7	1	4	292	0.00	29.937 
12:25	81.2	81.2	83.0	58	65.0	1	2	292	0.00	29.937 
12:30	81.4	81.4	83.3	58	65.2	1	5	292	0.00	29.930 
12:35	81.6	81.6	83.5	58	65.4	0	4	292	0.00	29.930 
12:40	82.2	82.2	84.3	58	65.9	0	3	292	0.00	29.930 
12:45	82.4	82.4	84.4	57	65.6	1	4	292	0.00	29.921 
12:50	82.4	82.4	84.4	57	65.6	1	3	292	0.00	29.921 
12:55	83.0	83.0	85.3	57	66.2	1	2	292	0.00	29.921 
13:00	83.4	83.4	85.6	56	66.0	1	3	292	0.00	29.913 
13:05	84.0	84.0	86.3	55	66.1	1	3	292	0.00	29.913 
13:10	84.1	84.1	86.4	55	66.2	0	2	292	0.00	29.913 
13:15	84.1	84.1	86.7	56	66.7	1	4	292	0.00	29.909 
13:20	84.1	84.1	86.9	57	67.2	1	4	292	0.00	29.909 
13:25	84.1	84.1	86.9	57	67.2	1	3	292	0.00	29.909 
13:30	84.3	84.3	87.0	56	66.9	1	5	292	0.00	29.904 
13:35	84.0	84.0	86.3	55	66.1	2	6	292	0.00	29.904 
13:40	83.4	83.4	85.8	57	66.5	2	4	270	0.00	29.904 
13:45	83.4	83.4	85.8	57	66.5	1	3	270	0.00	29.906 
13:50	83.8	83.8	86.4	57	66.9	0	2	270	0.00	29.906 
13:55	84.1	84.1	87.2	58	67.7	0	3	270	0.00	29.906 
14:00	84.3	84.3	87.0	56	66.9	0	2	292	0.00	29.898 
14:05	84.7	84.7	87.6	56	67.2	1	3	292	0.00	29.898 
14:10	85.1	85.1	88.5	57	68.1	0	3	292	0.00	29.898 
14:15	85.5	85.5	89.5	58	69.0	1	5	45	0.00	29.895 
14:20	85.9	85.9	89.2	55	67.8	0	2	90	0.00	29.895 
14:25	85.7	85.7	88.9	55	67.6	2	5	292	0.00	29.895 
14:30	85.5	85.5	88.9	56	68.0	2	4	292	0.00	29.896 
14:35	84.9	84.9	87.9	56	67.4	1	3	292	0.00	29.896 
14:40	84.9	84.9	87.9	56	67.4	2	4	292	0.00	29.896 
14:45	84.5	84.5	87.5	57	67.6	0	3	292	0.00	29.894 
14:50	84.5	84.5	87.8	58	68.1	0	2	292	0.00	29.894 
14:55	84.5	84.5	87.8	58	68.1	1	4	292	0.00	29.894 
15:00	84.1	84.1	87.2	58	67.7	1	4	292	0.00	29.894 
15:05	83.8	83.8	86.7	58	67.4	2	4	292	0.00	29.894 
15:10	83.4	83.4	86.3	59	67.5	0	2	292	0.00	29.894 
15:15	83.2	83.2	86.0	59	67.4	0	2	292	0.00	29.888 
15:20	83.2	83.2	86.2	60	67.8	0	1	292	0.00	29.888 
15:25	83.4	83.4	86.5	60	68.0	0	2	292	0.00	29.888 
15:30	83.8	83.8	87.2	60	68.4	0	2	292	0.00	29.882 
15:35	83.8	83.8	87.2	60	68.4	0	2	292	0.00	29.882 
15:40	83.8	83.8	87.2	60	68.4	0	3	292	0.00	29.882 
15:45	84.0	84.0	87.8	61	69.1	1	3	292	0.00	29.879 
15:50	84.1	84.1	87.4	59	68.2	1	3	292	0.00	29.879 
15:55	84.5	84.5	88.4	60	69.1	0	2	292	0.00	29.879 
16:00	84.9	84.9	89.1	60	69.4	0	1	292	0.00	29.878 
16:05	84.5	84.5	88.1	59	68.6	0	2	292	0.00	29.878 
16:10	84.1	84.1	87.7	60	68.7	0	1	292	0.00	29.878 
16:15	84.0	84.0	87.5	60	68.6	0	2	292	0.00	29.878 
16:20	83.8	83.8	87.7	62	69.4	0	1	292	0.00	29.878 
16:25	83.6	83.6	87.4	62	69.2	0	3	292	0.00	29.878 
16:30	83.4	83.4	87.0	62	69.0	1	5	292	0.00	29.872 
16:35	83.2	83.2	86.7	62	68.8	1	3	292	0.00	29.872 
16:40	83.0	83.0	86.4	62	68.6	0	3	292	0.00	29.872 
16:45	82.8	82.8	86.3	63	68.9	0	3	292	0.00	29.868 
16:50	82.6	82.6	85.9	63	68.7	0	1	292	0.00	29.868 
16:55	82.8	82.8	86.3	63	68.9	0	1	292	0.00	29.868 
17:00	83.0	83.0	86.9	64	69.5	0	1	292	0.00	29.865 
17:05	84.0	84.0	88.9	65	70.9	0	1	292	0.00	29.865 
17:10	84.7	84.7	89.6	63	70.7	0	1	292	0.00	29.865 
17:15	85.5	85.5	90.5	61	70.5	0	3	292	0.00	29.855 
17:20	85.9	85.9	91.3	61	70.9	0	1	68	0.00	29.855 
17:25	86.3	86.3	91.3	59	70.2	0	1	68	0.00	29.855 
17:30	86.5	86.5	91.7	59	70.4	0	1	68	0.00	29.851 
17:35	86.7	86.7	91.7	58	70.1	0	2	0	0.00	29.851 
17:40	86.5	86.5	91.3	58	69.9	0	1	0	0.00	29.851 
17:45	85.7	85.7	90.2	59	69.7	0	1	0	0.00	29.850 
17:50	85.3	85.3	90.1	61	70.3	0	1	0	0.00	29.850 
17:55	85.3	85.3	90.1	61	70.3	0	2	0	0.00	29.850 
18:00	85.1	85.1	89.4	60	69.6	1	3	0	0.00	29.850 
18:05	84.3	84.3	88.6	62	69.8	0	2	0	0.00	29.850 
18:10	84.1	84.1	88.5	63	70.1	0	1	225	0.00	29.850 
18:15	84.1	84.1	88.5	63	70.1	1	4	248	0.00	29.854 
18:20	84.1	84.1	88.5	63	70.1	1	3	248	0.00	29.854 
18:25	84.1	84.1	88.8	64	70.6	0	2	248	0.00	29.854 
18:30	84.0	84.0	88.4	63	70.0	0	4	248	0.00	29.852 
18:35	83.8	83.8	88.3	64	70.3	0	1	248	0.00	29.852 
18:40	83.4	83.4	87.6	64	69.9	0	2	248	0.00	29.852 
18:45	83.0	83.0	87.1	65	70.0	0	1	248	0.00	29.856 
18:50	82.8	82.8	86.7	65	69.8	0	1	248	0.00	29.856 
18:55	82.8	82.8	87.0	66	70.3	0	1	248	0.00	29.856 
19:00	82.8	82.8	87.0	66	70.3	0	1	248	0.00	29.863 
19:05	82.6	82.6	86.9	67	70.5	0	1	248	0.00	29.863 
19:10	82.4	82.4	86.5	67	70.3	0	2	248	0.00	29.863 
19:15	82.6	82.6	86.9	67	70.5	0	2	248	0.00	29.861 
19:20	82.6	82.6	86.9	67	70.5	0	1	248	0.00	29.861 
19:25	82.8	82.8	87.2	67	70.7	0	2	248	0.00	29.861 
19:30	82.8	82.8	87.0	66	70.3	0	2	248	0.00	29.858 
19:35	82.6	82.6	86.9	67	70.5	0	1	248	0.00	29.858 
19:40	82.6	82.6	87.1	68	70.9	0	1	248	0.00	29.858 
19:45	82.6	82.6	87.1	68	70.9	0	1	248	0.00	29.859 
19:50	82.4	82.4	86.7	68	70.8	0	1	248	0.00	29.859 
19:55	82.4	82.4	87.0	69	71.2	0	0	---	0.00	29.859 
20:00	82.4	82.4	87.0	69	71.2	0	0	---	0.00	29.858 
20:05	82.4	82.4	86.7	68	70.8	0	1	248	0.00	29.858 
20:10	82.2	82.2	86.6	69	71.0	0	1	248	0.00	29.858 
20:15	82.2	82.2	86.6	69	71.0	0	1	248	0.00	29.860 
20:20	82.0	82.0	86.4	70	71.2	0	1	248	0.00	29.860 
20:25	82.0	82.0	86.2	69	70.8	0	1	248	0.00	29.860 
20:30	81.8	81.8	86.1	70	71.0	0	2	248	0.00	29.860 
20:35	81.6	81.6	85.7	70	70.8	0	1	248	0.00	29.860 
20:40	81.4	81.4	85.5	71	71.1	0	1	248	0.00	29.860 
20:45	81.2	81.2	85.3	72	71.3	0	2	248	0.00	29.861 
20:50	81.1	81.1	85.2	72	71.2	0	2	248	0.00	29.861 
20:55	80.9	80.9	85.0	73	71.4	0	1	248	0.00	29.861 
21:00	80.7	80.7	84.6	73	71.2	0	0	---	0.00	29.861 
21:05	80.5	80.5	84.4	74	71.4	0	1	248	0.00	29.861 
21:10	80.3	80.3	84.1	75	71.6	0	0	---	0.00	29.861 
21:15	79.9	79.9	83.4	75	71.2	0	2	248	0.00	29.868 
21:20	79.9	79.9	83.4	75	71.2	0	1	248	0.00	29.868 
21:25	79.8	79.8	83.3	76	71.5	0	0	---	0.00	29.868 
21:30	79.6	79.6	83.0	76	71.3	0	0	---	0.00	29.868 
21:35	79.6	79.6	83.1	77	71.7	0	0	---	0.00	29.868 
21:40	79.4	79.4	82.7	77	71.5	0	1	248	0.00	29.868 
21:45	79.4	79.4	82.7	77	71.5	0	1	248	0.00	29.873 
21:50	79.2	79.2	82.3	77	71.3	0	0	---	0.00	29.873 
21:55	79.0	79.0	82.0	78	71.5	0	0	---	0.00	29.873 
22:00	79.0	79.0	82.0	78	71.5	0	0	---	0.00	29.877 
22:05	78.8	78.8	81.7	78	71.3	0	0	---	0.00	29.877 
22:10	78.6	78.6	81.4	79	71.5	0	0	---	0.00	29.877 
22:15	78.6	78.6	81.4	79	71.5	0	0	---	0.00	29.875 
22:20	78.5	78.5	81.2	79	71.4	0	0	---	0.00	29.875 
22:25	78.3	78.3	80.8	80	71.6	0	0	---	0.00	29.875 
22:30	78.3	78.3	80.8	80	71.6	0	0	---	0.00	29.876 
22:35	78.1	78.1	80.5	80	71.4	0	0	---	0.00	29.876 
22:40	77.9	77.9	80.1	80	71.2	0	0	---	0.00	29.876 
22:45	77.7	77.7	79.8	81	71.4	0	0	---	0.00	29.878 
22:50	77.6	77.6	79.6	81	71.3	0	0	---	0.00	29.878 
22:55	77.4	77.4	79.2	81	71.1	0	0	---	0.00	29.878 
23:00	77.2	77.2	78.9	82	71.3	0	0	---	0.00	29.878 
23:05	77.2	77.2	78.8	83	71.6	0	0	---	0.00	29.878 
23:10	77.2	77.2	78.8	83	71.6	0	0	---	0.00	29.878 
23:15	77.0	77.0	78.5	83	71.4	0	0	---	0.00	29.876 
23:20	77.0	77.0	78.4	84	71.8	0	1	248	0.00	29.876 
23:25	77.2	77.2	78.8	83	71.6	1	2	248	0.00	29.876 
23:30	77.0	77.0	78.5	83	71.4	0	4	180	0.00	29.864 
23:35	76.3	76.3	77.2	84	71.1	1	3	180	0.00	29.864 
23:40	75.6	75.6	75.8	86	71.1	2	4	180	0.01	29.864 
23:45	74.4	74.4	74.4	87	70.3	4	7	292	0.26	29.893 
23:50	73.5	73.5	73.5	89	70.0	0	5	270	0.25	29.893 
23:55	73.3	73.3	73.3	91	70.5	0	2	270	0.08	29.893 

CoCoRaHS
IN-AL-39
A2 Web Hosting
Creative Commons License
GoDaddy
search engine by freefind advanced

loaded 2018-11-12 14:48:26 • last modified 2010-11-18 10:43:29
Privacy PolicyDisclaimer
• wx.awcolley.com is powered by PmWiki v.2002016 •
• all content (unless otherwise noted) © 2018 A W Colley